Home / US / California / Anacapa Island

Anacapa Island, CA Weather

Current Report for Mon Feb 19 2018

As of 4:51 AM PST MON FEB 19 2018

50°F 10°cAnacapa Island weather conditions : Fair

Fair

Barometer: 29.88 inHg. rising

Humidity: 33%

Wind: NW. 12mph

Wind Gust: 14mph

Wind Chill: 45°F

Dew Point: 22°F / -6°C falling

Visibility: 10.00mi.

Sunrise: 6:39 AM

Sunset: 5:42 PM

Moon Phase: Waxing Crescent Moon

Daily and Hourly Summary

Loading Anacapa Island CA Summary and Hourly data for today, tonight and tomorrow...
Forecast for Anacapa Island, CA:
(Forecast based on TAF for )
0430 AM PST MON FEB 19 2018
  
MORNING AFTERNOON EVENING OVERNIGHT MORNING
Clear Clear Clear Clear Clear
Clear Clear Clear Clear Clear
Original Encoded TAF:
Dated: 0430 AM PST MON FEB 19 2018
2018/02/19 12:30
TAF KOXR 191129Z 1912/2012 30014G22KT P6SM SKC 
     FM192000 29020G30KT P6SM SKC 
     FM200200 30014KT P6SM SKC 
     FM200800 35007KT P6SM SKC

Temperatures Today (View More Charts)

Anacapa Island, CA updates by locals

Write your own report, forecast, or traffic update:

Please note by clicking on "Post" you acknowledge that you have read the Terms of Service and the report and/or forecast you are posting is in compliance with such terms. Be respectful. An inappropriate post will be removed by a moderator. If you are not finding the information you want, please be sure to note the navigation tabs just above the breadcrumbs, which are links to other data relating to this city.